sensor_id;sensor_type;location;lat;lon;timestamp;pressure;altitude;pressure_sealevel;temperature;humidity
14818;BME280;7500;57.698;11.986;2023-03-11T00:00:10;100128.69;;;1.67;100.00
14818;BME280;7500;57.698;11.986;2023-03-11T00:02:41;100123.56;;;1.65;100.00
14818;BME280;7500;57.698;11.986;2023-03-11T00:05:13;100128.63;;;1.70;100.00
14818;BME280;7500;57.698;11.986;2023-03-11T00:07:42;100124.19;;;1.73;100.00
14818;BME280;7500;57.698;11.986;2023-03-11T00:10:13;100049.00;;;1.32;100.00
14818;BME280;7500;57.698;11.986;2023-03-11T00:12:40;100129.38;;;1.75;100.00
14818;BME280;7500;57.698;11.986;2023-03-11T00:15:10;100126.63;;;1.79;100.00
14818;BME280;7500;57.698;11.986;2023-03-11T00:17:37;100123.13;;;1.82;100.00
14818;BME280;7500;57.698;11.986;2023-03-11T00:20:05;100121.41;;;1.81;100.00
14818;BME280;7500;57.698;11.986;2023-03-11T00:22:32;100125.53;;;1.88;100.00
14818;BME280;7500;57.698;11.986;2023-03-11T00:24:59;100123.19;;;1.79;100.00
14818;BME280;7500;57.698;11.986;2023-03-11T00:27:26;100123.88;;;1.85;100.00
14818;BME280;7500;57.698;11.986;2023-03-11T00:29:53;100123.03;;;1.85;100.00
14818;BME280;7500;57.698;11.986;2023-03-11T00:32:21;100125.72;;;1.82;100.00
14818;BME280;7500;57.698;11.986;2023-03-11T00:34:48;100115.25;;;1.83;100.00
14818;BME280;7500;57.698;11.986;2023-03-11T00:37:15;100121.25;;;1.87;100.00
14818;BME280;7500;57.698;11.986;2023-03-11T00:39:42;100129.28;;;1.78;100.00
14818;BME280;7500;57.698;11.986;2023-03-11T00:42:09;100122.25;;;1.81;100.00
14818;BME280;7500;57.698;11.986;2023-03-11T00:44:36;100124.84;;;1.81;100.00
14818;BME280;7500;57.698;11.986;2023-03-11T00:47:03;100125.72;;;1.82;100.00
14818;BME280;7500;57.698;11.986;2023-03-11T00:49:31;100118.91;;;1.76;100.00
14818;BME280;7500;57.698;11.986;2023-03-11T00:51:58;100132.63;;;1.83;100.00
14818;BME280;7500;57.698;11.986;2023-03-11T00:54:25;100126.75;;;1.75;100.00
14818;BME280;7500;57.698;11.986;2023-03-11T00:56:52;100144.91;;;1.76;100.00
14818;BME280;7500;57.698;11.986;2023-03-11T00:59:18;100139.69;;;1.78;100.00
14818;BME280;7500;57.698;11.986;2023-03-11T01:01:45;100131.88;;;1.78;100.00
14818;BME280;7500;57.698;11.986;2023-03-11T01:04:12;100137.16;;;1.75;100.00
14818;BME280;7500;57.698;11.986;2023-03-11T01:06:41;100139.84;;;1.72;100.00
14818;BME280;7500;57.698;11.986;2023-03-11T01:09:07;100121.78;;;1.66;100.00
14818;BME280;7500;57.698;11.986;2023-03-11T01:11:34;100127.00;;;1.66;100.00
14818;BME280;7500;57.698;11.986;2023-03-11T01:14:01;100125.34;;;1.63;100.00
14818;BME280;7500;57.698;11.986;2023-03-11T01:16:28;100125.25;;;1.66;100.00
14818;BME280;7500;57.698;11.986;2023-03-11T01:18:55;100119.19;;;1.66;100.00
14818;BME280;7500;57.698;11.986;2023-03-11T01:21:22;100125.34;;;1.62;100.00
14818;BME280;7500;57.698;11.986;2023-03-11T01:23:50;100119.25;;;1.63;100.00
14818;BME280;7500;57.698;11.986;2023-03-11T01:26:17;100122.66;;;1.66;100.00
14818;BME280;7500;57.698;11.986;2023-03-11T01:28:44;100067.06;;;1.37;100.00
14818;BME280;7500;57.698;11.986;2023-03-11T01:31:11;100108.84;;;1.63;100.00
14818;BME280;7500;57.698;11.986;2023-03-11T01:33:39;100124.59;;;1.58;100.00
14818;BME280;7500;57.698;11.986;2023-03-11T01:36:06;100115.16;;;1.54;100.00
14818;BME280;7500;57.698;11.986;2023-03-11T01:38:33;100125.47;;;1.57;100.00
14818;BME280;7500;57.698;11.986;2023-03-11T01:41:02;100122.81;;;1.60;100.00
14818;BME280;7500;57.698;11.986;2023-03-11T01:43:46;100128.09;;;1.57;100.00
14818;BME280;7500;57.698;11.986;2023-03-11T01:46:16;100117.75;;;1.54;100.00
14818;BME280;7500;57.698;11.986;2023-03-11T01:48:45;100115.56;;;1.38;100.00
14818;BME280;7500;57.698;11.986;2023-03-11T01:51:13;100123.09;;;1.50;100.00
14818;BME280;7500;57.698;11.986;2023-03-11T01:53:41;100135.25;;;1.48;100.00
14818;BME280;7500;57.698;11.986;2023-03-11T01:56:10;100138.91;;;1.41;100.00
14818;BME280;7500;57.698;11.986;2023-03-11T01:58:41;100137.22;;;1.38;100.00
14818;BME280;7500;57.698;11.986;2023-03-11T02:01:09;100144.25;;;1.35;100.00
14818;BME280;7500;57.698;11.986;2023-03-11T02:03:38;100143.22;;;1.40;100.00
14818;BME280;7500;57.698;11.986;2023-03-11T02:06:07;100145.88;;;1.39;100.00
14818;BME280;7500;57.698;11.986;2023-03-11T02:08:36;100149.31;;;1.39;100.00
14818;BME280;7500;57.698;11.986;2023-03-11T02:11:05;100147.72;;;1.35;100.00
14818;BME280;7500;57.698;11.986;2023-03-11T02:13:35;100150.38;;;1.32;100.00
14818;BME280;7500;57.698;11.986;2023-03-11T02:16:04;100139.00;;;1.36;100.00
14818;BME280;7500;57.698;11.986;2023-03-11T02:18:31;100136.50;;;1.32;100.00
14818;BME280;7500;57.698;11.986;2023-03-11T02:21:04;100143.47;;;1.31;100.00
14818;BME280;7500;57.698;11.986;2023-03-11T02:23:41;100144.50;;;1.24;100.00
14818;BME280;7500;57.698;11.986;2023-03-11T02:26:15;100146.22;;;1.24;100.00
14818;BME280;7500;57.698;11.986;2023-03-11T02:28:45;100153.97;;;1.27;100.00
14818;BME280;7500;57.698;11.986;2023-03-11T02:31:13;100146.22;;;1.24;100.00
14818;BME280;7500;57.698;11.986;2023-03-11T02:33:42;100151.53;;;1.19;100.00
14818;BME280;7500;57.698;11.986;2023-03-11T02:36:29;100158.38;;;1.23;100.00
14818;BME280;7500;57.698;11.986;2023-03-11T02:38:56;100153.31;;;1.17;100.00
14818;BME280;7500;57.698;11.986;2023-03-11T02:41:23;100151.44;;;1.24;100.00
14818;BME280;7500;57.698;11.986;2023-03-11T02:43:52;100160.16;;;1.21;100.00
14818;BME280;7500;57.698;11.986;2023-03-11T02:46:19;100157.69;;;1.17;100.00
14818;BME280;7500;57.698;11.986;2023-03-11T02:48:47;100157.00;;;1.09;100.00
14818;BME280;7500;57.698;11.986;2023-03-11T02:51:14;100157.19;;;1.02;100.00
14818;BME280;7500;57.698;11.986;2023-03-11T02:53:48;100158.09;;;0.99;100.00
14818;BME280;7500;57.698;11.986;2023-03-11T02:56:16;100157.09;;;1.05;100.00
14818;BME280;7500;57.698;11.986;2023-03-11T02:58:43;100160.44;;;1.09;100.00
14818;BME280;7500;57.698;11.986;2023-03-11T03:01:11;100160.56;;;1.05;100.00
14818;BME280;7500;57.698;11.986;2023-03-11T03:03:38;100158.97;;;1.00;100.00
14818;BME280;7500;57.698;11.986;2023-03-11T03:06:05;100171.78;;;1.07;100.00
14818;BME280;7500;57.698;11.986;2023-03-11T03:08:33;100149.41;;;1.00;100.00
14818;BME280;7500;57.698;11.986;2023-03-11T03:10:59;100167.22;;;1.16;100.00
14818;BME280;7500;57.698;11.986;2023-03-11T03:13:28;100170.75;;;1.12;100.00
14818;BME280;7500;57.698;11.986;2023-03-11T03:15:55;100165.63;;;1.09;100.00
14818;BME280;7500;57.698;11.986;2023-03-11T03:18:23;100167.34;;;1.10;100.00
14818;BME280;7500;57.698;11.986;2023-03-11T03:20:51;100171.72;;;1.08;100.00
14818;BME280;7500;57.698;11.986;2023-03-11T03:23:18;100171.63;;;1.13;100.00
14818;BME280;7500;57.698;11.986;2023-03-11T03:25:45;100178.53;;;1.14;100.00
14818;BME280;7500;57.698;11.986;2023-03-11T03:28:13;100169.94;;;1.12;100.00
14818;BME280;7500;57.698;11.986;2023-03-11T03:30:40;100170.06;;;1.06;100.00
14818;BME280;7500;57.698;11.986;2023-03-11T03:33:07;100175.06;;;1.13;100.00
14818;BME280;7500;57.698;11.986;2023-03-11T03:35:40;100171.72;;;1.10;100.00
14818;BME280;7500;57.698;11.986;2023-03-11T03:38:07;100179.44;;;1.11;100.00
14818;BME280;7500;57.698;11.986;2023-03-11T03:40:34;100168.09;;;1.15;100.00
14818;BME280;7500;57.698;11.986;2023-03-11T03:43:01;100180.28;;;1.13;100.00
14818;BME280;7500;57.698;11.986;2023-03-11T03:45:28;100130.63;;;0.88;100.00
14818;BME280;7500;57.698;11.986;2023-03-11T03:47:55;100169.69;;;1.22;100.00
14818;BME280;7500;57.698;11.986;2023-03-11T03:50:22;100100.69;;;0.72;100.00
14818;BME280;7500;57.698;11.986;2023-03-11T03:52:50;100174.81;;;1.24;100.00
14818;BME280;7500;57.698;11.986;2023-03-11T03:55:17;100174.06;;;1.20;100.00
14818;BME280;7500;57.698;11.986;2023-03-11T03:57:44;100175.13;;;1.12;100.00
14818;BME280;7500;57.698;11.986;2023-03-11T04:00:12;100173.50;;;1.07;100.00
14818;BME280;7500;57.698;11.986;2023-03-11T04:02:40;100173.72;;;0.98;100.00
14818;BME280;7500;57.698;11.986;2023-03-11T04:05:07;100180.69;;;0.96;100.00
14818;BME280;7500;57.698;11.986;2023-03-11T04:07:35;100178.13;;;0.94;100.00
14818;BME280;7500;57.698;11.986;2023-03-11T04:10:04;100169.72;;;0.82;100.00
14818;BME280;7500;57.698;11.986;2023-03-11T04:12:31;100178.41;;;0.81;100.00
14818;BME280;7500;57.698;11.986;2023-03-11T04:14:58;100176.69;;;0.80;100.00
14818;BME280;7500;57.698;11.986;2023-03-11T04:17:25;100182.03;;;0.74;100.00
14818;BME280;7500;57.698;11.986;2023-03-11T04:19:52;100179.47;;;0.72;100.00
14818;BME280;7500;57.698;11.986;2023-03-11T04:22:19;100180.34;;;0.71;100.00
14818;BME280;7500;57.698;11.986;2023-03-11T04:24:46;100195.19;;;0.66;100.00
14818;BME280;7500;57.698;11.986;2023-03-11T04:27:14;100189.19;;;0.63;100.00
14818;BME280;7500;57.698;11.986;2023-03-11T04:29:41;100197.00;;;0.63;100.00
14818;BME280;7500;57.698;11.986;2023-03-11T04:32:08;100190.22;;;0.56;100.00
14818;BME280;7500;57.698;11.986;2023-03-11T04:34:35;100194.50;;;0.57;100.00
14818;BME280;7500;57.698;11.986;2023-03-11T04:37:02;100199.72;;;0.57;100.00
14818;BME280;7500;57.698;11.986;2023-03-11T04:39:29;100176.63;;;0.42;100.00
14818;BME280;7500;57.698;11.986;2023-03-11T04:41:56;100198.97;;;0.50;100.00
14818;BME280;7500;57.698;11.986;2023-03-11T04:44:24;100194.63;;;0.51;100.00
14818;BME280;7500;57.698;11.986;2023-03-11T04:46:51;100179.16;;;0.45;100.00
14818;BME280;7500;57.698;11.986;2023-03-11T04:49:18;100185.22;;;0.45;100.00
14818;BME280;7500;57.698;11.986;2023-03-11T04:51:45;100186.13;;;0.44;100.00
14818;BME280;7500;57.698;11.986;2023-03-11T04:54:12;100184.34;;;0.45;100.00
14818;BME280;7500;57.698;11.986;2023-03-11T04:56:39;100187.00;;;0.43;100.00
14818;BME280;7500;57.698;11.986;2023-03-11T04:59:06;100183.56;;;0.41;100.00
14818;BME280;7500;57.698;11.986;2023-03-11T05:01:34;100191.38;;;0.40;100.00
14818;BME280;7500;57.698;11.986;2023-03-11T05:04:01;100194.63;;;0.51;100.00
14818;BME280;7500;57.698;11.986;2023-03-11T05:06:28;100198.28;;;0.41;100.00
14818;BME280;7500;57.698;11.986;2023-03-11T05:08:55;100188.94;;;0.32;100.00
14818;BME280;7500;57.698;11.986;2023-03-11T05:11:23;100197.66;;;0.30;100.00
14818;BME280;7500;57.698;11.986;2023-03-11T05:13:50;100194.28;;;0.23;100.00
14818;BME280;7500;57.698;11.986;2023-03-11T05:16:17;100200.34;;;0.24;100.00
14818;BME280;7500;57.698;11.986;2023-03-11T05:18:45;100195.22;;;0.21;100.00
14818;BME280;7500;57.698;11.986;2023-03-11T05:21:12;100182.50;;;0.06;100.00
14818;BME280;7500;57.698;11.986;2023-03-11T05:23:39;100203.91;;;0.18;100.00
14818;BME280;7500;57.698;11.986;2023-03-11T05:26:07;100216.91;;;0.17;100.00
14818;BME280;7500;57.698;11.986;2023-03-11T05:28:33;100223.78;;;0.19;100.00
14818;BME280;7500;57.698;11.986;2023-03-11T05:31:00;100215.16;;;0.17;100.00
14818;BME280;7500;57.698;11.986;2023-03-11T05:33:27;100225.50;;;0.20;100.00
14818;BME280;7500;57.698;11.986;2023-03-11T05:36:05;100231.56;;;0.19;100.00
14818;BME280;7500;57.698;11.986;2023-03-11T05:38:33;100225.59;;;0.16;100.00
14818;BME280;7500;57.698;11.986;2023-03-11T05:41:00;100224.75;;;0.14;100.00
14818;BME280;7500;57.698;11.986;2023-03-11T05:43:27;100227.41;;;0.11;100.00
14818;BME280;7500;57.698;11.986;2023-03-11T05:45:54;100217.06;;;0.09;100.00
14818;BME280;7500;57.698;11.986;2023-03-11T05:48:21;100221.44;;;0.07;100.00
14818;BME280;7500;57.698;11.986;2023-03-11T05:50:48;100225.75;;;0.07;100.00
14818;BME280;7500;57.698;11.986;2023-03-11T05:53:16;100222.25;;;0.09;100.00
14818;BME280;7500;57.698;11.986;2023-03-11T05:55:43;100219.66;;;0.09;100.00
14818;BME280;7500;57.698;11.986;2023-03-11T05:58:10;100232.84;;;-0.03;100.00
14818;BME280;7500;57.698;11.986;2023-03-11T06:00:37;100230.44;;;-0.13;100.00
14818;BME280;7500;57.698;11.986;2023-03-11T06:03:04;100231.25;;;-0.11;100.00
14818;BME280;7500;57.698;11.986;2023-03-11T06:05:31;100233.94;;;-0.17;100.00
14818;BME280;7500;57.698;11.986;2023-03-11T06:07:58;100240.84;;;-0.16;100.00
14818;BME280;7500;57.698;11.986;2023-03-11T06:10:26;100244.25;;;-0.12;100.00
14818;BME280;7500;57.698;11.986;2023-03-11T06:12:53;100235.75;;;-0.22;100.00
14818;BME280;7500;57.698;11.986;2023-03-11T06:15:20;100242.69;;;-0.22;100.00
14818;BME280;7500;57.698;11.986;2023-03-11T06:17:47;100239.31;;;-0.29;100.00
14818;BME280;7500;57.698;11.986;2023-03-11T06:20:14;100250.53;;;-0.25;100.00
14818;BME280;7500;57.698;11.986;2023-03-11T06:22:41;100239.44;;;-0.35;100.00
14818;BME280;7500;57.698;11.986;2023-03-11T06:25:08;100252.34;;;-0.32;100.00
14818;BME280;7500;57.698;11.986;2023-03-11T06:27:38;100261.88;;;-0.34;100.00
14818;BME280;7500;57.698;11.986;2023-03-11T06:30:06;100259.31;;;-0.35;100.00
14818;BME280;7500;57.698;11.986;2023-03-11T06:32:34;100252.00;;;-0.67;100.00
14818;BME280;7500;57.698;11.986;2023-03-11T06:35:01;100245.38;;;-0.86;100.00
14818;BME280;7500;57.698;11.986;2023-03-11T06:37:29;100251.38;;;-0.82;100.00
14818;BME280;7500;57.698;11.986;2023-03-11T06:39:56;100264.38;;;-0.85;100.00
14818;BME280;7500;57.698;11.986;2023-03-11T06:42:22;100259.09;;;-0.78;100.00
14818;BME280;7500;57.698;11.986;2023-03-11T06:44:51;100262.69;;;-0.88;100.00
14818;BME280;7500;57.698;11.986;2023-03-11T06:47:18;100260.97;;;-0.89;100.00
14818;BME280;7500;57.698;11.986;2023-03-11T06:49:44;100279.88;;;-0.81;100.00
14818;BME280;7500;57.698;11.986;2023-03-11T06:52:11;100266.94;;;-0.84;100.00
14818;BME280;7500;57.698;11.986;2023-03-11T06:54:38;100267.78;;;-0.82;100.00
14818;BME280;7500;57.698;11.986;2023-03-11T06:57:06;100268.53;;;-0.75;100.00
14818;BME280;7500;57.698;11.986;2023-03-11T06:59:33;100271.97;;;-0.72;100.00
14818;BME280;7500;57.698;11.986;2023-03-11T07:02:02;100278.72;;;-0.62;100.00
14818;BME280;7500;57.698;11.986;2023-03-11T07:04:30;100276.09;;;-0.59;100.00
14818;BME280;7500;57.698;11.986;2023-03-11T07:06:57;100276.09;;;-0.59;100.00
14818;BME280;7500;57.698;11.986;2023-03-11T07:09:24;100278.63;;;-0.56;100.00
14818;BME280;7500;57.698;11.986;2023-03-11T07:11:52;100267.47;;;-0.59;100.00
14818;BME280;7500;57.698;11.986;2023-03-11T07:14:20;100270.06;;;-0.61;100.00
14818;BME280;7500;57.698;11.986;2023-03-11T07:16:47;100274.38;;;-0.60;100.00
14818;BME280;7500;57.698;11.986;2023-03-11T07:19:16;100278.56;;;-0.50;100.00
14818;BME280;7500;57.698;11.986;2023-03-11T07:21:42;100271.63;;;-0.48;100.00
14818;BME280;7500;57.698;11.986;2023-03-11T07:24:11;100292.28;;;-0.43;100.00
14818;BME280;7500;57.698;11.986;2023-03-11T07:26:38;100289.69;;;-0.42;100.00
14818;BME280;7500;57.698;11.986;2023-03-11T07:29:06;100282.78;;;-0.43;100.00
14818;BME280;7500;57.698;11.986;2023-03-11T07:31:35;100277.50;;;-0.37;100.00
14818;BME280;7500;57.698;11.986;2023-03-11T07:34:03;100276.63;;;-0.37;100.00
14818;BME280;7500;57.698;11.986;2023-03-11T07:36:38;100272.38;;;-0.41;100.00
14818;BME280;7500;57.698;11.986;2023-03-11T07:39:05;100281.69;;;-0.30;100.00
14818;BME280;7500;57.698;11.986;2023-03-11T07:41:34;100208.78;;;-0.65;100.00
14818;BME280;7500;57.698;11.986;2023-03-11T07:44:02;100285.13;;;-0.28;100.00
14818;BME280;7500;57.698;11.986;2023-03-11T07:46:30;100287.59;;;-0.19;100.00
14818;BME280;7500;57.698;11.986;2023-03-11T07:48:57;100293.59;;;-0.17;100.00
14818;BME280;7500;57.698;11.986;2023-03-11T07:51:27;100286.66;;;-0.16;100.00
14818;BME280;7500;57.698;11.986;2023-03-11T07:53:57;100296.06;;;-0.08;100.00
14818;BME280;7500;57.698;11.986;2023-03-11T07:56:26;100203.47;;;-0.56;100.00
14818;BME280;7500;57.698;11.986;2023-03-11T07:58:53;100290.69;;;0.02;100.00
14818;BME280;7500;57.698;11.986;2023-03-11T08:01:23;100290.69;;;0.01;100.00
14818;BME280;7500;57.698;11.986;2023-03-11T08:03:52;100290.66;;;0.04;100.00
14818;BME280;7500;57.698;11.986;2023-03-11T08:06:23;100281.06;;;0.09;100.00
14818;BME280;7500;57.698;11.986;2023-03-11T08:08:51;100282.78;;;0.10;100.00
14818;BME280;7500;57.698;11.986;2023-03-11T08:11:19;100282.69;;;0.16;100.00
14818;BME280;7500;57.698;11.986;2023-03-11T08:13:47;100292.91;;;0.23;100.00
14818;BME280;7500;57.698;11.986;2023-03-11T08:16:16;100285.97;;;0.25;100.00
14818;BME280;7500;57.698;11.986;2023-03-11T08:18:43;100285.84;;;0.33;100.00
14818;BME280;7500;57.698;11.986;2023-03-11T08:21:12;100280.56;;;0.36;100.00
14818;BME280;7500;57.698;11.986;2023-03-11T08:23:39;100287.38;;;0.44;100.00
14818;BME280;7500;57.698;11.986;2023-03-11T08:26:09;100287.22;;;0.52;100.00
14818;BME280;7500;57.698;11.986;2023-03-11T08:28:38;100280.28;;;0.52;100.00
14818;BME280;7500;57.698;11.986;2023-03-11T08:31:11;100281.09;;;0.56;100.00
14818;BME280;7500;57.698;11.986;2023-03-11T08:33:38;100280.16;;;0.58;100.00
14818;BME280;7500;57.698;11.986;2023-03-11T08:36:05;100280.16;;;0.60;100.00
14818;BME280;7500;57.698;11.986;2023-03-11T08:38:32;100280.81;;;0.69;100.00
14818;BME280;7500;57.698;11.986;2023-03-11T08:40:59;100285.78;;;0.81;100.00
14818;BME280;7500;57.698;11.986;2023-03-11T08:43:26;100284.75;;;0.88;100.00
14818;BME280;7500;57.698;11.986;2023-03-11T08:45:55;100273.50;;;0.89;100.00
14818;BME280;7500;57.698;11.986;2023-03-11T08:48:21;100278.56;;;0.95;100.00
14818;BME280;7500;57.698;11.986;2023-03-11T08:50:50;100276.78;;;0.99;100.00
14818;BME280;7500;57.698;11.986;2023-03-11T08:53:17;100280.94;;;1.07;100.00
14818;BME280;7500;57.698;11.986;2023-03-11T08:55:44;100281.66;;;1.13;100.00
14818;BME280;7500;57.698;11.986;2023-03-11T08:58:11;100283.94;;;1.28;100.00
14818;BME280;7500;57.698;11.986;2023-03-11T09:00:38;100281.22;;;1.34;100.00
14818;BME280;7500;57.698;11.986;2023-03-11T09:03:07;100275.13;;;1.34;100.00
14818;BME280;7500;57.698;11.986;2023-03-11T09:05:34;100281.03;;;1.40;100.00
14818;BME280;7500;57.698;11.986;2023-03-11T09:08:01;100280.09;;;1.44;100.00
14818;BME280;7500;57.698;11.986;2023-03-11T09:10:29;100271.34;;;1.48;100.00
14818;BME280;7500;57.698;11.986;2023-03-11T09:12:56;100273.03;;;1.51;100.00
14818;BME280;7500;57.698;11.986;2023-03-11T09:15:23;100274.50;;;1.61;100.00
14818;BME280;7500;57.698;11.986;2023-03-11T09:17:50;100272.81;;;1.60;100.00
14818;BME280;7500;57.698;11.986;2023-03-11T09:20:19;100277.81;;;1.69;100.00
14818;BME280;7500;57.698;11.986;2023-03-11T09:22:46;100269.81;;;1.76;100.00
14818;BME280;7500;57.698;11.986;2023-03-11T09:25:13;100269.75;;;1.79;100.00
14818;BME280;7500;57.698;11.986;2023-03-11T09:27:40;100267.81;;;1.87;100.00
14818;BME280;7500;57.698;11.986;2023-03-11T09:30:08;100268.56;;;1.92;100.00
14818;BME280;7500;57.698;11.986;2023-03-11T09:32:35;100269.25;;;2.00;100.00
14818;BME280;7500;57.698;11.986;2023-03-11T09:35:03;100268.25;;;2.04;100.00
14818;BME280;7500;57.698;11.986;2023-03-11T09:37:31;100268.16;;;2.09;100.00
14818;BME280;7500;57.698;11.986;2023-03-11T09:39:58;100254.13;;;2.14;100.00
14818;BME280;7500;57.698;11.986;2023-03-11T09:42:30;100255.75;;;2.18;100.00
14818;BME280;7500;57.698;11.986;2023-03-11T09:45:03;100240.00;;;2.22;100.00
14818;BME280;7500;57.698;11.986;2023-03-11T09:47:42;100250.25;;;2.28;100.00
14818;BME280;7500;57.698;11.986;2023-03-11T09:50:16;100254.63;;;2.28;100.00
14818;BME280;7500;57.698;11.986;2023-03-11T09:52:52;100251.91;;;2.32;100.00
14818;BME280;7500;57.698;11.986;2023-03-11T09:55:43;100251.16;;;2.27;100.00
14818;BME280;7500;57.698;11.986;2023-03-11T09:58:14;100247.56;;;2.33;100.00
14818;BME280;7500;57.698;11.986;2023-03-11T10:00:43;100262.16;;;2.38;100.00
14818;BME280;7500;57.698;11.986;2023-03-11T10:03:21;100239.41;;;2.45;100.00
14818;BME280;7500;57.698;11.986;2023-03-11T10:05:51;100242.72;;;2.51;100.00
14818;BME280;7500;57.698;11.986;2023-03-11T10:08:29;100233.94;;;2.54;100.00
14818;BME280;7500;57.698;11.986;2023-03-11T10:11:04;100231.28;;;2.55;100.00
14818;BME280;7500;57.698;11.986;2023-03-11T10:13:42;100232.28;;;2.51;100.00
14818;BME280;7500;57.698;11.986;2023-03-11T10:16:18;100232.84;;;2.62;100.00
14818;BME280;7500;57.698;11.986;2023-03-11T10:18:54;100224.84;;;2.68;100.00
14818;BME280;7500;57.698;11.986;2023-03-11T10:21:37;100226.47;;;2.72;100.00
14818;BME280;7500;57.698;11.986;2023-03-11T10:24:18;100227.94;;;2.82;100.00
14818;BME280;7500;57.698;11.986;2023-03-11T10:26:55;100214.78;;;2.87;100.00
14818;BME280;7500;57.698;11.986;2023-03-11T10:29:26;100213.78;;;2.91;100.00
14818;BME280;7500;57.698;11.986;2023-03-11T10:31:59;100222.34;;;2.94;100.00
14818;BME280;7500;57.698;11.986;2023-03-11T10:34:31;100217.13;;;2.96;100.00
14818;BME280;7500;57.698;11.986;2023-03-11T10:37:05;100215.31;;;2.98;100.00
14818;BME280;7500;57.698;11.986;2023-03-11T10:39:39;100211.66;;;3.03;100.00
14818;BME280;7500;57.698;11.986;2023-03-11T10:42:12;100216.75;;;3.08;100.00
14818;BME280;7500;57.698;11.986;2023-03-11T10:44:41;100220.22;;;3.08;100.00
14818;BME280;7500;57.698;11.986;2023-03-11T10:47:14;100212.31;;;3.11;100.00
14818;BME280;7500;57.698;11.986;2023-03-11T10:49:42;100212.22;;;3.14;100.00
14818;BME280;7500;57.698;11.986;2023-03-11T10:52:09;100206.00;;;3.18;100.00
14818;BME280;7500;57.698;11.986;2023-03-11T10:54:39;100202.59;;;3.16;100.00
14818;BME280;7500;57.698;11.986;2023-03-11T10:57:21;100203.34;;;3.20;100.00
14818;BME280;7500;57.698;11.986;2023-03-11T10:59:49;100203.16;;;3.26;100.00
14818;BME280;7500;57.698;11.986;2023-03-11T11:02:24;100200.59;;;3.24;100.00
14818;BME280;7500;57.698;11.986;2023-03-11T11:07:50;100196.16;;;3.28;100.00
14818;BME280;7500;57.698;11.986;2023-03-11T11:10:21;100191.59;;;3.34;100.00
14818;BME280;7500;57.698;11.986;2023-03-11T11:12:56;100188.94;;;3.35;100.00
14818;BME280;7500;57.698;11.986;2023-03-11T11:15:25;100179.41;;;3.34;100.00
14818;BME280;7500;57.698;11.986;2023-03-11T11:17:53;100183.63;;;3.38;100.00
14818;BME280;7500;57.698;11.986;2023-03-11T11:20:23;100168.75;;;3.40;100.00
14818;BME280;7500;57.698;11.986;2023-03-11T11:22:52;100183.22;;;3.50;100.00
14818;BME280;7500;57.698;11.986;2023-03-11T11:25:33;100175.13;;;3.59;100.00
14818;BME280;7500;57.698;11.986;2023-03-11T11:28:02;100172.22;;;3.68;100.00
14818;BME280;7500;57.698;11.986;2023-03-11T11:30:30;100174.03;;;3.66;100.00
14818;BME280;7500;57.698;11.986;2023-03-11T11:33:20;100168.63;;;3.71;100.00
14818;BME280;7500;57.698;11.986;2023-03-11T11:35:50;100172.78;;;3.76;100.00
14818;BME280;7500;57.698;11.986;2023-03-11T11:38:21;100172.91;;;3.99;100.00
14818;BME280;7500;57.698;11.986;2023-03-11T11:40:52;100170.44;;;4.19;100.00
14818;BME280;7500;57.698;11.986;2023-03-11T11:43:25;100159.69;;;4.51;100.00
14818;BME280;7500;57.698;11.986;2023-03-11T11:46:00;100153.72;;;4.72;100.00
14818;BME280;7500;57.698;11.986;2023-03-11T11:48:33;100155.59;;;4.91;100.00
14818;BME280;7500;57.698;11.986;2023-03-11T11:51:11;100154.38;;;5.00;100.00
14818;BME280;7500;57.698;11.986;2023-03-11T11:53:43;100160.81;;;5.13;100.00
14818;BME280;7500;57.698;11.986;2023-03-11T11:56:13;100150.69;;;5.27;100.00
14818;BME280;7500;57.698;11.986;2023-03-11T11:58:40;100151.34;;;5.32;100.00
14818;BME280;7500;57.698;11.986;2023-03-11T12:01:14;100152.75;;;5.19;100.00
14818;BME280;7500;57.698;11.986;2023-03-11T12:07:00;100142.28;;;5.40;100.00
14818;BME280;7500;57.698;11.986;2023-03-11T12:09:35;100137.53;;;5.28;100.00
14818;BME280;7500;57.698;11.986;2023-03-11T12:12:14;100132.41;;;5.47;100.00
14818;BME280;7500;57.698;11.986;2023-03-11T12:14:47;100127.97;;;5.49;100.00
14818;BME280;7500;57.698;11.986;2023-03-11T12:17:17;100119.63;;;5.60;100.00
14818;BME280;7500;57.698;11.986;2023-03-11T12:19:49;100124.03;;;5.39;100.00
14818;BME280;7500;57.698;11.986;2023-03-11T12:22:45;100121.59;;;5.34;100.00
14818;BME280;7500;57.698;11.986;2023-03-11T12:25:20;100127.47;;;5.18;100.00
14818;BME280;7500;57.698;11.986;2023-03-11T12:27:53;100112.03;;;5.33;100.00
14818;BME280;7500;57.698;11.986;2023-03-11T12:30:27;100118.44;;;5.26;100.00
14818;BME280;7500;57.698;11.986;2023-03-11T12:32:58;100122.38;;;5.15;100.00
14818;BME280;7500;57.698;11.986;2023-03-11T12:35:28;100119.91;;;4.89;100.00
14818;BME280;7500;57.698;11.986;2023-03-11T12:38:01;100111.78;;;4.96;100.00
14818;BME280;7500;57.698;11.986;2023-03-11T12:40:55;100092.28;;;5.05;100.00
14818;BME280;7500;57.698;11.986;2023-03-11T12:43:27;100100.16;;;5.25;100.00
14818;BME280;7500;57.698;11.986;2023-03-11T12:46:14;100089.78;;;5.23;100.00
14818;BME280;7500;57.698;11.986;2023-03-11T12:48:43;100090.50;;;5.27;100.00
14818;BME280;7500;57.698;11.986;2023-03-11T12:51:38;100088.00;;;5.24;100.00
14818;BME280;7500;57.698;11.986;2023-03-11T12:54:29;100092.88;;;5.11;100.00
14818;BME280;7500;57.698;11.986;2023-03-11T12:56:58;100092.78;;;5.13;100.00
14818;BME280;7500;57.698;11.986;2023-03-11T12:59:55;100095.56;;;5.10;100.00
14818;BME280;7500;57.698;11.986;2023-03-11T13:02:51;100101.63;;;4.89;100.00
14818;BME280;7500;57.698;11.986;2023-03-11T13:05:26;100105.13;;;4.88;100.00